createdAt,value
2019-01-30T00:01:35.196Z,38.57
2019-01-30T00:04:04.212Z,43.07
2019-01-30T00:06:34.228Z,40.77
2019-01-30T00:09:08.392Z,39.60
2019-01-30T00:11:38.741Z,42.40
2019-01-30T00:14:08.434Z,36.73
2019-01-30T00:16:38.150Z,40.93
2019-01-30T00:19:06.828Z,41.20
2019-01-30T00:21:35.745Z,38.03
2019-01-30T00:24:05.051Z,36.17
2019-01-30T00:26:33.902Z,41.83
2019-01-30T00:29:03.441Z,39.50
2019-01-30T00:31:32.876Z,41.37
2019-01-30T00:34:02.381Z,45.70
2019-01-30T00:36:31.321Z,45.20
2019-01-30T00:39:00.644Z,45.63
2019-01-30T00:41:30.809Z,40.37
2019-01-30T00:44:00.800Z,49.50
2019-01-30T00:46:29.615Z,45.53
2019-01-30T00:48:58.451Z,43.93
2019-01-30T00:51:27.291Z,42.67
2019-01-30T00:53:56.967Z,45.10
2019-01-30T00:56:26.058Z,43.47
2019-01-30T00:58:54.838Z,43.73
2019-01-30T01:01:23.461Z,47.20
2019-01-30T01:03:52.823Z,45.37
2019-01-30T01:06:22.793Z,45.57
2019-01-30T01:08:51.621Z,46.50
2019-01-30T01:11:22.260Z,43.23
2019-01-30T01:13:51.744Z,40.30
2019-01-30T01:16:21.172Z,45.10
2019-01-30T01:18:50.621Z,47.47
2019-01-30T01:21:19.366Z,44.83
2019-01-30T01:23:48.332Z,44.60
2019-01-30T01:26:18.227Z,42.00
2019-01-30T01:28:47.312Z,40.97
2019-01-30T01:31:17.431Z,39.57
2019-01-30T01:33:46.907Z,32.70
2019-01-30T01:36:16.386Z,33.63
2019-01-30T01:38:45.252Z,33.90
2019-01-30T01:41:15.806Z,34.87
2019-01-30T01:43:46.772Z,34.50
2019-01-30T01:46:16.207Z,39.23
2019-01-30T01:48:45.941Z,35.30
2019-01-30T01:51:14.776Z,35.93
2019-01-30T01:53:45.997Z,40.33
2019-01-30T01:56:14.710Z,36.70
2019-01-30T01:59:05.698Z,34.20
2019-01-30T02:01:35.502Z,36.73
2019-01-30T02:04:05.323Z,37.10
2019-01-30T02:06:35.442Z,37.73
2019-01-30T02:09:06.783Z,36.17
2019-01-30T02:11:35.763Z,39.07
2019-01-30T02:14:04.964Z,39.07
2019-01-30T02:16:33.978Z,39.30
2019-01-30T02:19:03.156Z,36.87
2019-01-30T02:21:32.582Z,38.70
2019-01-30T02:24:01.308Z,38.27
2019-01-30T02:26:30.676Z,40.37
2019-01-30T02:28:59.673Z,42.13
2019-01-30T02:31:28.893Z,36.73
2019-01-30T02:33:58.347Z,40.90
2019-01-30T02:36:27.177Z,36.93
2019-01-30T02:38:56.055Z,39.40
2019-01-30T02:41:24.832Z,41.03
2019-01-30T02:43:53.728Z,41.93
2019-01-30T02:46:23.395Z,41.93
2019-01-30T02:48:52.195Z,45.73
2019-01-30T02:51:20.952Z,37.63
2019-01-30T02:53:50.016Z,36.80
2019-01-30T02:56:18.775Z,41.40
2019-01-30T02:58:48.392Z,44.80
2019-01-30T03:01:17.178Z,47.40
2019-01-30T03:03:45.795Z,43.80
2019-01-30T03:06:14.338Z,50.17
2019-01-30T03:08:43.075Z,43.00
2019-01-30T03:11:11.904Z,41.47
2019-01-30T03:13:40.858Z,47.83
2019-01-30T03:16:09.596Z,39.00
2019-01-30T03:18:38.337Z,43.93
2019-01-30T03:21:07.669Z,44.47
2019-01-30T03:23:38.201Z,46.53
2019-01-30T03:26:07.013Z,48.00
2019-01-30T03:28:35.716Z,51.10
2019-01-30T03:31:17.001Z,44.93
2019-01-30T03:33:35.009Z,48.87
2019-01-30T03:36:03.828Z,52.27
2019-01-30T03:38:32.672Z,44.90
2019-01-30T03:41:01.840Z,52.07
2019-01-30T03:43:30.660Z,46.33
2019-01-30T03:45:59.928Z,45.27
2019-01-30T03:48:28.819Z,44.03
2019-01-30T03:50:57.683Z,47.17
2019-01-30T03:53:27.092Z,46.17
2019-01-30T03:55:56.425Z,50.90
2019-01-30T03:58:25.055Z,49.07
2019-01-30T04:00:55.045Z,46.00
2019-01-30T04:03:26.053Z,52.00
2019-01-30T04:05:56.466Z,47.83
2019-01-30T04:08:26.691Z,50.20
2019-01-30T04:10:55.456Z,59.17
2019-01-30T04:13:24.394Z,51.60
2019-01-30T04:15:53.386Z,56.53
2019-01-30T04:18:22.416Z,44.60
2019-01-30T04:20:51.217Z,52.07
2019-01-30T04:29:06.872Z,58.43
2019-01-30T04:31:38.287Z,51.63
2019-01-30T04:34:06.411Z,55.97
2019-01-30T04:36:36.827Z,60.87
2019-01-30T04:39:07.654Z,62.73
2019-01-30T04:41:36.963Z,82.93
2019-01-30T04:44:05.639Z,84.77
2019-01-30T04:46:34.188Z,85.53
2019-01-30T04:49:03.524Z,84.50
2019-01-30T04:51:32.472Z,71.77
2019-01-30T04:54:01.335Z,72.43
2019-01-30T04:56:30.251Z,66.50
2019-01-30T04:59:01.319Z,75.30
2019-01-30T05:01:30.743Z,76.73
2019-01-30T05:04:00.199Z,71.37
2019-01-30T05:06:28.833Z,67.33
2019-01-30T05:08:58.837Z,69.03
2019-01-30T05:11:31.231Z,71.20
2019-01-30T05:14:01.471Z,64.33
2019-01-30T05:16:30.467Z,64.37
2019-01-30T05:19:02.176Z,63.77
2019-01-30T05:21:33.116Z,69.27
2019-01-30T05:24:03.544Z,64.37
2019-01-30T05:26:33.856Z,68.40
2019-01-30T05:29:03.387Z,64.67
2019-01-30T05:31:33.280Z,63.83
2019-01-30T05:34:01.823Z,66.97
2019-01-30T05:36:30.640Z,72.23
2019-01-30T05:39:00.682Z,68.57
2019-01-30T05:41:31.804Z,60.33
2019-01-30T05:44:00.615Z,66.43
2019-01-30T05:46:30.729Z,64.93
2019-01-30T05:48:59.858Z,58.77
2019-01-30T05:51:28.676Z,67.13
2019-01-30T05:53:57.232Z,57.60
2019-01-30T05:56:26.938Z,59.70
2019-01-30T05:58:59.126Z,63.43
2019-01-30T06:01:27.996Z,68.87
2019-01-30T06:03:58.301Z,63.83
2019-01-30T06:06:30.001Z,51.87
2019-01-30T06:08:58.869Z,66.97
2019-01-30T06:11:29.305Z,72.87
2019-01-30T06:13:59.050Z,77.53
2019-01-30T06:16:28.883Z,75.83
2019-01-30T06:18:58.436Z,80.30
2019-01-30T06:21:27.869Z,82.87
2019-01-30T06:23:57.426Z,94.07
2019-01-30T06:26:28.239Z,89.73
2019-01-30T06:28:58.700Z,84.37
2019-01-30T06:31:28.368Z,92.90
2019-01-30T06:34:00.621Z,79.10
2019-01-30T06:36:31.100Z,77.07
2019-01-30T06:39:01.488Z,81.00
2019-01-30T06:41:53.818Z,79.63
2019-01-30T06:44:23.176Z,79.00
2019-01-30T06:46:51.952Z,83.17
2019-01-30T06:49:23.854Z,76.93
2019-01-30T06:51:55.185Z,69.97
2019-01-30T06:54:25.404Z,80.27
2019-01-30T06:56:56.465Z,70.33
2019-01-30T06:59:27.720Z,76.50
2019-01-30T07:01:58.292Z,76.23
2019-01-30T07:04:29.245Z,73.60
2019-01-30T07:06:58.927Z,70.70
2019-01-30T07:09:27.643Z,76.87
2019-01-30T07:11:59.269Z,68.47
2019-01-30T07:14:31.364Z,75.17
2019-01-30T07:17:01.455Z,65.70
2019-01-30T07:19:34.978Z,71.20
2019-01-30T07:22:06.046Z,62.03
2019-01-30T07:27:27.393Z,65.30
2019-01-30T07:30:02.318Z,62.63
2019-01-30T07:32:42.152Z,80.47
2019-01-30T07:35:10.714Z,66.30
2019-01-30T07:37:42.967Z,65.00
2019-01-30T07:40:17.218Z,66.53
2019-01-30T07:42:48.135Z,70.93
2019-01-30T07:45:22.393Z,65.63
2019-01-30T07:47:51.646Z,64.37
2019-01-30T07:50:22.972Z,74.93
2019-01-30T07:52:55.772Z,77.70
2019-01-30T07:55:24.717Z,74.17
2019-01-30T07:57:56.879Z,70.27
2019-01-30T08:00:29.380Z,70.53
2019-01-30T08:03:01.178Z,65.07
2019-01-30T08:05:34.608Z,73.40
2019-01-30T08:08:06.230Z,75.03
2019-01-30T08:13:30.496Z,65.83
2019-01-30T08:16:03.855Z,74.17
2019-01-30T08:18:33.829Z,78.70
2019-01-30T08:21:04.981Z,69.53
2019-01-30T08:23:35.514Z,72.43
2019-01-30T08:26:08.654Z,75.77
2019-01-30T08:28:38.597Z,78.83
2019-01-30T08:31:07.930Z,73.87
2019-01-30T08:33:38.057Z,76.83
2019-01-30T08:36:09.748Z,79.77
2019-01-30T08:38:49.549Z,82.60
2019-01-30T08:41:20.459Z,81.00
2019-01-30T08:43:53.809Z,76.67
2019-01-30T08:46:24.910Z,78.00
2019-01-30T08:48:55.964Z,80.17
2019-01-30T08:51:26.219Z,77.30
2019-01-30T08:53:57.543Z,80.50
2019-01-30T08:56:30.820Z,74.27
2019-01-30T08:59:02.065Z,76.57
2019-01-30T09:01:32.539Z,78.83
2019-01-30T09:04:07.449Z,76.00
2019-01-30T09:06:38.178Z,66.93
2019-01-30T09:09:14.695Z,69.47
2019-01-30T09:11:50.041Z,66.10
2019-01-30T09:14:20.646Z,65.07
2019-01-30T09:16:53.466Z,78.67
2019-01-30T09:19:33.310Z,71.40
2019-01-30T09:22:04.175Z,84.67
2019-01-30T09:24:35.308Z,68.13
2019-01-30T09:27:05.567Z,65.90
2019-01-30T09:29:40.912Z,62.87
2019-01-30T09:32:11.428Z,65.23
2019-01-30T09:34:49.746Z,67.13
2019-01-30T09:37:21.866Z,72.87
2019-01-30T09:39:52.722Z,72.07
2019-01-30T09:42:24.460Z,64.37
2019-01-30T09:44:55.298Z,68.00
2019-01-30T09:47:25.028Z,71.67
2019-01-30T09:49:53.900Z,73.27
2019-01-30T09:52:28.199Z,72.57
2019-01-30T09:54:57.524Z,71.87
2019-01-30T09:57:30.707Z,80.93
2019-01-30T10:00:00.439Z,73.20
2019-01-30T10:02:32.467Z,77.23
2019-01-30T10:05:03.130Z,79.50
2019-01-30T10:07:32.583Z,78.67
2019-01-30T10:10:02.892Z,71.83
2019-01-30T10:12:35.844Z,79.57
2019-01-30T10:15:10.431Z,79.07
2019-01-30T10:17:39.935Z,78.40
2019-01-30T10:20:16.647Z,81.77
2019-01-30T10:22:47.524Z,78.27
2019-01-30T10:28:17.197Z,77.67
2019-01-30T10:30:56.478Z,73.03
2019-01-30T10:33:26.315Z,68.47
2019-01-30T10:35:56.820Z,77.37
2019-01-30T10:38:26.183Z,77.93
2019-01-30T10:40:56.132Z,73.83
2019-01-30T10:43:25.919Z,80.60
2019-01-30T10:46:17.282Z,75.50
2019-01-30T10:48:51.202Z,73.77
2019-01-30T10:51:23.114Z,71.47
2019-01-30T10:53:54.169Z,77.43
2019-01-30T10:56:23.656Z,75.67
2019-01-30T10:58:54.741Z,73.33
2019-01-30T11:01:23.895Z,74.60
2019-01-30T11:03:57.448Z,83.07
2019-01-30T11:06:23.440Z,78.60
2019-01-30T11:08:53.528Z,86.50
2019-01-30T11:11:23.627Z,76.40
2019-01-30T11:13:56.669Z,64.33
2019-01-30T11:16:26.998Z,78.10
2019-01-30T11:18:57.395Z,69.33
2019-01-30T11:21:29.066Z,77.30
2019-01-30T11:24:01.932Z,78.30
2019-01-30T11:26:32.286Z,76.13
2019-01-30T11:29:01.830Z,81.07
2019-01-30T11:31:36.473Z,74.73
2019-01-30T11:34:07.528Z,76.57
2019-01-30T11:36:56.869Z,77.90
2019-01-30T11:39:28.138Z,81.07
2019-01-30T11:41:57.285Z,77.50
2019-01-30T11:44:28.012Z,79.70
2019-01-30T11:46:59.211Z,75.10
2019-01-30T11:49:29.707Z,73.93
2019-01-30T11:52:04.852Z,72.43
2019-01-30T11:54:54.168Z,73.77
2019-01-30T11:57:24.045Z,72.33
2019-01-30T11:59:55.395Z,78.27
2019-01-30T12:02:24.754Z,78.10
2019-01-30T12:04:56.287Z,52.33
2019-01-30T12:07:27.920Z,68.43
2019-01-30T12:09:58.293Z,71.00
2019-01-30T12:12:30.863Z,71.17
2019-01-30T12:15:01.016Z,67.50
2019-01-30T12:17:30.897Z,72.03
2019-01-30T12:20:01.224Z,72.40
2019-01-30T12:22:33.149Z,79.73
2019-01-30T12:25:25.306Z,81.23
2019-01-30T12:27:58.412Z,74.37
2019-01-30T12:30:29.569Z,69.57
2019-01-30T12:33:02.248Z,76.77
2019-01-30T12:35:33.117Z,77.30
2019-01-30T12:38:01.874Z,125.37
2019-01-30T12:40:34.013Z,81.67
2019-01-30T12:43:04.633Z,86.27
2019-01-30T12:45:36.712Z,76.53
2019-01-30T12:48:27.811Z,82.33
2019-01-30T12:50:57.764Z,79.43
2019-01-30T12:53:27.365Z,87.90
2019-01-30T12:55:57.518Z,88.13
2019-01-30T12:58:28.711Z,81.03
2019-01-30T13:00:59.919Z,86.47
2019-01-30T13:03:30.897Z,84.63
2019-01-30T13:06:01.637Z,87.67
2019-01-30T13:08:31.359Z,89.67
2019-01-30T13:11:00.878Z,88.00
2019-01-30T13:13:29.687Z,87.57
2019-01-30T13:16:01.517Z,80.43
2019-01-30T13:18:30.933Z,91.23
2019-01-30T13:21:04.420Z,97.03
2019-01-30T13:23:34.626Z,103.83
2019-01-30T13:26:04.148Z,91.53
2019-01-30T13:28:34.813Z,94.13
2019-01-30T13:31:04.241Z,92.60
2019-01-30T13:33:34.370Z,98.43
2019-01-30T13:36:06.086Z,86.23
2019-01-30T13:38:35.807Z,88.93
2019-01-30T13:41:04.495Z,94.33
2019-01-30T13:43:37.945Z,94.70
2019-01-30T13:46:08.103Z,87.90
2019-01-30T13:48:41.048Z,91.70
2019-01-30T13:51:12.507Z,99.10
2019-01-30T13:53:41.353Z,89.97
2019-01-30T13:56:12.430Z,100.67
2019-01-30T13:58:43.453Z,94.30
2019-01-30T14:01:17.753Z,94.73
2019-01-30T14:03:43.411Z,92.37
2019-01-30T14:06:16.817Z,93.23
2019-01-30T14:08:46.960Z,91.53
2019-01-30T14:11:16.606Z,87.80
2019-01-30T14:13:45.404Z,92.43
2019-01-30T14:16:14.396Z,93.60
2019-01-30T14:18:43.395Z,100.03
2019-01-30T14:21:13.007Z,91.33
2019-01-30T14:23:43.560Z,99.57
2019-01-30T14:26:14.139Z,94.37
2019-01-30T14:28:44.742Z,92.20
2019-01-30T14:31:15.056Z,93.10
2019-01-30T14:33:45.764Z,97.17
2019-01-30T14:36:17.553Z,103.03
2019-01-30T14:38:49.703Z,96.13
2019-01-30T14:41:18.883Z,104.63
2019-01-30T14:43:47.638Z,104.67
2019-01-30T14:46:17.697Z,81.70
2019-01-30T14:48:50.643Z,112.17
2019-01-30T14:51:22.266Z,110.33
2019-01-30T14:53:54.468Z,97.57
2019-01-30T14:56:25.344Z,97.07
2019-01-30T14:58:57.686Z,117.13
2019-01-30T15:01:27.350Z,100.27
2019-01-30T15:03:56.161Z,98.27
2019-01-30T15:06:24.954Z,104.73
2019-01-30T15:08:53.560Z,95.13
2019-01-30T15:11:22.304Z,108.30
2019-01-30T15:13:57.381Z,84.63
2019-01-30T15:16:27.145Z,105.13
2019-01-30T15:18:55.855Z,116.87
2019-01-30T15:21:44.290Z,55.93
2019-01-30T15:24:14.724Z,73.97
2019-01-30T15:26:43.463Z,109.67
2019-01-30T15:29:13.096Z,106.00
2019-01-30T15:31:42.598Z,116.80
2019-01-30T15:34:11.868Z,78.50
2019-01-30T15:36:41.039Z,109.57
2019-01-30T15:39:10.231Z,127.30
2019-01-30T15:41:38.984Z,88.63
2019-01-30T15:44:07.749Z,114.37
2019-01-30T15:46:38.118Z,99.00
2019-01-30T15:49:07.399Z,109.50
2019-01-30T15:51:36.475Z,119.30
2019-01-30T15:54:05.406Z,54.50
2019-01-30T15:56:35.588Z,105.00
2019-01-30T15:59:47.667Z,105.70
2019-01-30T16:02:18.019Z,68.63
2019-01-30T16:04:48.059Z,116.63
2019-01-30T16:07:18.300Z,104.37
2019-01-30T16:09:47.025Z,113.13
2019-01-30T16:12:15.628Z,105.50
2019-01-30T16:14:44.505Z,114.10
2019-01-30T16:17:13.680Z,72.67
2019-01-30T16:19:42.564Z,104.63
2019-01-30T16:22:11.502Z,105.20
2019-01-30T16:24:40.396Z,103.03
2019-01-30T16:27:10.217Z,103.60
2019-01-30T16:29:39.704Z,84.03
2019-01-30T16:32:08.503Z,112.07
2019-01-30T16:34:38.752Z,82.80
2019-01-30T16:37:07.566Z,99.63
2019-01-30T16:39:36.337Z,69.57
2019-01-30T16:42:13.782Z,98.43
2019-01-30T16:44:45.904Z,94.47
2019-01-30T16:47:15.205Z,101.83
2019-01-30T16:49:46.441Z,44.07
2019-01-30T16:52:15.781Z,110.37
2019-01-30T16:54:50.983Z,95.80
2019-01-30T16:57:18.251Z,109.67
2019-01-30T16:59:48.748Z,87.17
2019-01-30T17:02:21.966Z,96.43
2019-01-30T17:04:52.431Z,109.03
2019-01-30T17:07:21.876Z,94.13
2019-01-30T17:09:50.800Z,80.13
2019-01-30T17:12:22.611Z,119.57
2019-01-30T17:14:51.268Z,110.60
2019-01-30T17:17:20.037Z,105.17
2019-01-30T17:19:49.124Z,89.97
2019-01-30T17:22:20.100Z,101.83
2019-01-30T17:24:49.131Z,77.77
2019-01-30T17:27:20.549Z,72.83
2019-01-30T17:29:50.971Z,107.07
2019-01-30T17:32:21.363Z,97.20
2019-01-30T17:34:52.350Z,90.33
2019-01-30T17:37:26.457Z,96.83
2019-01-30T17:39:56.910Z,98.27
2019-01-30T17:42:43.220Z,92.23
2019-01-30T17:45:13.410Z,105.20
2019-01-30T17:47:46.444Z,101.57
2019-01-30T17:50:23.700Z,86.33
2019-01-30T17:53:05.369Z,102.87
2019-01-30T17:55:36.717Z,87.23
2019-01-30T17:58:07.297Z,98.57
2019-01-30T18:00:47.229Z,98.03
2019-01-30T18:03:17.047Z,99.20
2019-01-30T18:05:48.198Z,101.77
2019-01-30T18:08:19.074Z,115.23
2019-01-30T18:10:49.585Z,101.77
2019-01-30T18:13:19.129Z,104.63
2019-01-30T18:15:50.481Z,113.33
2019-01-30T18:18:20.496Z,108.43
2019-01-30T18:20:52.182Z,110.23
2019-01-30T18:23:21.558Z,101.63
2019-01-30T18:25:51.846Z,109.80
2019-01-30T18:28:22.745Z,115.70
2019-01-30T18:30:55.527Z,115.03
2019-01-30T18:33:24.783Z,109.30
2019-01-30T18:35:54.460Z,123.00
2019-01-30T18:38:24.857Z,106.87
2019-01-30T18:40:53.627Z,122.77
2019-01-30T18:43:24.323Z,110.17
2019-01-30T18:45:54.626Z,113.97
2019-01-30T18:48:24.432Z,118.43
2019-01-30T18:50:56.928Z,107.77
2019-01-30T18:53:28.882Z,115.37
2019-01-30T18:56:00.643Z,111.63
2019-01-30T18:58:29.556Z,102.93
2019-01-30T19:00:59.398Z,115.10
2019-01-30T19:03:28.578Z,113.00
2019-01-30T19:05:58.409Z,111.63
2019-01-30T19:08:31.440Z,107.23
2019-01-30T19:11:02.196Z,107.57
2019-01-30T19:13:31.740Z,109.30
2019-01-30T19:16:01.886Z,112.87
2019-01-30T19:18:31.794Z,117.57
2019-01-30T19:21:01.525Z,106.30
2019-01-30T19:23:30.478Z,109.70
2019-01-30T19:26:04.324Z,117.30
2019-01-30T19:28:35.280Z,109.07
2019-01-30T19:31:05.630Z,113.87
2019-01-30T19:33:36.253Z,110.17
2019-01-30T19:36:05.323Z,110.23
2019-01-30T19:38:35.141Z,115.13
2019-01-30T19:41:04.772Z,94.53
2019-01-30T19:43:37.941Z,100.27
2019-01-30T19:46:08.346Z,108.53
2019-01-30T19:48:39.304Z,114.17
2019-01-30T19:51:09.609Z,114.00
2019-01-30T19:53:39.796Z,101.30
2019-01-30T19:56:09.975Z,109.50
2019-01-30T19:58:39.269Z,103.60
2019-01-30T20:01:13.244Z,115.27
2019-01-30T20:03:45.051Z,110.67
2019-01-30T20:06:18.367Z,111.50
2019-01-30T20:08:48.849Z,113.37
2019-01-30T20:11:23.146Z,113.47
2019-01-30T20:13:54.147Z,116.60
2019-01-30T20:16:33.012Z,118.27
2019-01-30T20:19:03.767Z,112.53
2019-01-30T20:21:38.211Z,112.00
2019-01-30T20:24:07.489Z,116.10
2019-01-30T20:26:36.204Z,107.97
2019-01-30T20:29:05.356Z,115.80
2019-01-30T20:31:37.427Z,112.20
2019-01-30T20:34:10.554Z,123.50
2019-01-30T20:36:50.755Z,118.90
2019-01-30T20:39:20.547Z,114.90
2019-01-30T20:41:51.429Z,122.73
2019-01-30T20:44:22.468Z,118.10
2019-01-30T20:46:51.927Z,126.97
2019-01-30T20:49:22.206Z,124.43
2019-01-30T20:51:51.759Z,118.53
2019-01-30T20:54:22.944Z,119.53
2019-01-30T20:56:53.884Z,105.20
2019-01-30T20:59:26.677Z,119.13
2019-01-30T21:01:58.233Z,107.30
2019-01-30T21:04:27.753Z,113.20
2019-01-30T21:06:56.506Z,115.37
2019-01-30T21:09:26.554Z,120.40
2019-01-30T21:11:58.187Z,120.37
2019-01-30T21:14:28.344Z,116.47
2019-01-30T21:16:58.513Z,106.00
2019-01-30T21:19:30.478Z,106.83
2019-01-30T21:22:00.037Z,111.60
2019-01-30T21:24:29.916Z,117.43
2019-01-30T21:27:01.441Z,100.27
2019-01-30T21:29:32.617Z,114.87
2019-01-30T21:32:04.768Z,99.90
2019-01-30T21:34:35.647Z,113.93
2019-01-30T21:37:06.174Z,103.67
2019-01-30T21:39:39.884Z,106.83
2019-01-30T21:42:10.809Z,113.13
2019-01-30T21:44:39.703Z,110.73
2019-01-30T21:47:08.634Z,95.77
2019-01-30T21:49:58.310Z,102.33
2019-01-30T21:52:28.116Z,102.60
2019-01-30T21:54:57.526Z,113.33
2019-01-30T21:57:26.297Z,92.10
2019-01-30T22:03:14.184Z,94.03
2019-01-30T22:05:42.938Z,106.93
2019-01-30T22:08:11.842Z,98.97
2019-01-30T22:10:41.302Z,108.13
2019-01-30T22:13:10.399Z,106.20
2019-01-30T22:15:39.118Z,96.63
2019-01-30T22:18:08.024Z,108.00
2019-01-30T22:20:36.957Z,121.00
2019-01-30T22:23:07.152Z,98.07
2019-01-30T22:25:36.056Z,132.67
2019-01-30T22:28:07.265Z,126.00
2019-01-30T22:30:37.152Z,120.10
2019-01-30T22:33:08.097Z,133.23
2019-01-30T22:35:38.638Z,130.13
2019-01-30T22:38:12.902Z,123.50
2019-01-30T22:40:43.396Z,122.67
2019-01-30T22:43:12.301Z,126.07
2019-01-30T22:45:41.098Z,122.63
2019-01-30T22:48:09.956Z,125.83
2019-01-30T22:50:38.519Z,110.70
2019-01-30T22:53:07.299Z,120.27
2019-01-30T22:55:36.478Z,110.07
2019-01-30T22:58:05.488Z,128.23
2019-01-30T23:03:50.571Z,137.50
2019-01-30T23:09:39.712Z,132.20
2019-01-30T23:21:18.678Z,112.57
2019-01-30T23:23:53.044Z,127.43
2019-01-30T23:26:24.822Z,114.70
2019-01-30T23:29:13.331Z,126.90
2019-01-30T23:31:55.980Z,110.13
2019-01-30T23:34:58.684Z,113.10
2019-01-30T23:37:30.468Z,111.33
2019-01-30T23:40:07.676Z,115.50
2019-01-30T23:43:02.989Z,109.87
2019-01-30T23:45:54.659Z,110.63
2019-01-30T23:48:59.796Z,115.13
2019-01-30T23:52:11.818Z,103.77
2019-01-30T23:54:52.817Z,107.60
2019-01-30T23:57:46.901Z,111.53
